Warwick, Australia

6:36 PM AEST on December 05, 2016 (GMT +1000)
Steve's Weather | | Change Station

Elev 1536 ft 28.22 °S, 152.03 °E | Updated 14 seconds ago

Mostly Cloudy
Mostly Cloudy
89.1 °F
Feels Like 94 °F
N
3.0
Wind Variable Wind from ENE
Gusts 8.0 mph

Today
High -- | Low -- °F
--% Chance of Precip.
Yesterday
High -- | Low -- °F
Precip. -- in
Pressure 29.80 in
Visibility 6.2 miles
Clouds Few 4800 ft
Mostly Cloudy 25000 ft
Heat Index 94 °F
Dew Point 70 °F
Humidity 53%
Rainfall 0.00 in
Snow Depth Not available.
4:46 AM 6:37 PM
Waxing Crescent, 29% visible
METAR YAMB 050800Z 07014KT 9999 FEW048 BKN250 29/21 Q1009 NOSIG
Pressure 29.80 in
Visibility 6.2 miles
Clouds Few 4800 ft
Mostly Cloudy 25000 ft
Heat Index 94 °F
Dew Point 70 °F
Humidity 53%
Rainfall 0.00 in
Snow Depth Not available.
4:46 AM 6:37 PM
Waxing Crescent, 29% visible
METAR YAMB 050800Z 07014KT 9999 FEW048 BKN250 29/21 Q1009 NOSIG

10-Day Weather Forecast

×

Almanac

Astronomy

Dec. 05, 2016 Rise Set
Actual Time
Civil Twilight
Nautical Twilight
Astronomical Twilight
Moon
Length of Visible Light
Length of Day
Tomorrow will be .
, % of the Moon is Illuminated

Today's Extremes

Country Highs Country Lows

Community

WunderPhotos

Upload Photos

1,955,771 photos uploaded!

WunderBlog® & News

Nearby

Air Quality

  Air Quality AQ Index Pollutant
Not available.

Snow Depth

Station Depth Elevation

Earthquake Activity

City Distance Mag. Time & Date
Minimum magnitude displayed is 2.5.

Coastal Water Temperatures

Place Temperature

Stations

Nearby Weather Stations

Station Location Temp. Windchill Dew Point Humidity Wind Precip. Elev Updated Type